Huvudsida
METAR-TAF:

METAR-TAF

Flygplatser :

Dala Airport

Borlänge, Sverige

latitud: 60-26N, longitud: 015-31E, höjd: 145 m

Aktuellt väderrapport

Denna rapport gjordes för 32 minuter sedan, klockan 03:20 UTC
Vind 10 kt från väst/sydväst
Temperatur 1°C
Fuktighet 80%
Tryck 993 hPa
Sikt 10 km eller mer

METAR: ESSD 190320Z AUTO 24010KT 9999 NCD 01/M02 Q0993

Tid: 04:52 (03:52 UTC)

Väderprognos

Denna rapport gjordes för 16 timmar och 22 minuter sedan, klockan 11:30 UTC
Prognos gäller från 18 kl. 12 UTC till 18 kl. 16 UTC
Vind 16 kt från väst/sydväst i byarna ända upp till 26 kt
Sikt 10 km eller mer
Få moln på en höjd av 4000 ft

TAF: ESSD 181130Z 1812/1816 24016G26KT 9999 FEW040

Aktuella väderrapporter och prognoser från 4000 flygplatser (METAR- och TAF-rapporter).

De tillgängliga stationerna syns som gula och röda prickar på kartan.

För musen över prickarna för att se namnen på stationerna.

Klicka sedan för att få väderrapporter och prognoser.

För att ändra kartan: Klicka på de gröna knapparna med ett svart kors på för att zooma in; den gröna knappen med ett streck på för att zooma ut; eller på de gröna pilarna för angränsande kartor.


METAR-TAF: